sensor_id;sensor_type;location;lat;lon;timestamp;P1;durP1;ratioP1;P2;durP2;ratioP2
61905;SDS011;47863;55.766;37.672;2023-08-01T00:01:30;8.15;;;4.50;;
61905;SDS011;47863;55.766;37.672;2023-08-01T00:03:57;8.27;;;4.32;;
61905;SDS011;47863;55.766;37.672;2023-08-01T00:06:22;9.30;;;4.13;;
61905;SDS011;47863;55.766;37.672;2023-08-01T00:08:50;12.73;;;5.00;;
61905;SDS011;47863;55.766;37.672;2023-08-01T00:11:16;8.38;;;4.10;;
61905;SDS011;47863;55.766;37.672;2023-08-01T00:13:42;9.43;;;4.22;;
61905;SDS011;47863;55.766;37.672;2023-08-01T00:16:08;7.72;;;4.57;;
61905;SDS011;47863;55.766;37.672;2023-08-01T00:18:34;8.82;;;4.35;;
61905;SDS011;47863;55.766;37.672;2023-08-01T00:21:00;9.20;;;4.05;;
61905;SDS011;47863;55.766;37.672;2023-08-01T00:23:26;7.95;;;4.00;;
61905;SDS011;47863;55.766;37.672;2023-08-01T00:25:52;12.40;;;4.68;;
61905;SDS011;47863;55.766;37.672;2023-08-01T00:28:18;9.45;;;4.22;;
61905;SDS011;47863;55.766;37.672;2023-08-01T00:30:43;8.15;;;4.45;;
61905;SDS011;47863;55.766;37.672;2023-08-01T00:33:09;10.10;;;5.28;;
61905;SDS011;47863;55.766;37.672;2023-08-01T00:35:36;8.10;;;4.80;;
61905;SDS011;47863;55.766;37.672;2023-08-01T00:38:02;7.88;;;4.10;;
61905;SDS011;47863;55.766;37.672;2023-08-01T00:40:31;6.63;;;4.10;;
61905;SDS011;47863;55.766;37.672;2023-08-01T00:42:57;7.95;;;4.72;;
61905;SDS011;47863;55.766;37.672;2023-08-01T00:45:22;8.93;;;4.30;;
61905;SDS011;47863;55.766;37.672;2023-08-01T00:47:51;7.03;;;4.13;;
61905;SDS011;47863;55.766;37.672;2023-08-01T00:50:18;8.60;;;4.60;;
61905;SDS011;47863;55.766;37.672;2023-08-01T00:52:49;9.95;;;4.65;;
61905;SDS011;47863;55.766;37.672;2023-08-01T00:55:17;10.50;;;4.55;;
61905;SDS011;47863;55.766;37.672;2023-08-01T00:57:45;10.95;;;4.82;;
61905;SDS011;47863;55.766;37.672;2023-08-01T01:00:11;10.70;;;4.70;;
61905;SDS011;47863;55.766;37.672;2023-08-01T01:02:37;7.72;;;4.63;;
61905;SDS011;47863;55.766;37.672;2023-08-01T01:05:03;8.10;;;4.55;;
61905;SDS011;47863;55.766;37.672;2023-08-01T01:07:30;9.23;;;4.40;;
61905;SDS011;47863;55.766;37.672;2023-08-01T01:09:57;9.88;;;4.20;;
61905;SDS011;47863;55.766;37.672;2023-08-01T01:12:23;9.55;;;4.25;;
61905;SDS011;47863;55.766;37.672;2023-08-01T01:14:49;8.65;;;4.28;;
61905;SDS011;47863;55.766;37.672;2023-08-01T01:17:14;9.25;;;4.50;;
61905;SDS011;47863;55.766;37.672;2023-08-01T01:19:40;9.57;;;4.88;;
61905;SDS011;47863;55.766;37.672;2023-08-01T01:22:06;8.73;;;4.30;;
61905;SDS011;47863;55.766;37.672;2023-08-01T01:24:34;7.10;;;4.22;;
61905;SDS011;47863;55.766;37.672;2023-08-01T01:27:01;10.30;;;4.68;;
61905;SDS011;47863;55.766;37.672;2023-08-01T01:29:29;11.40;;;4.20;;
61905;SDS011;47863;55.766;37.672;2023-08-01T01:31:55;10.10;;;4.65;;
61905;SDS011;47863;55.766;37.672;2023-08-01T01:34:21;7.60;;;4.50;;
61905;SDS011;47863;55.766;37.672;2023-08-01T01:36:47;9.82;;;5.00;;
61905;SDS011;47863;55.766;37.672;2023-08-01T01:39:12;8.85;;;4.55;;
61905;SDS011;47863;55.766;37.672;2023-08-01T01:41:38;11.23;;;4.90;;
61905;SDS011;47863;55.766;37.672;2023-08-01T01:44:04;9.10;;;4.40;;
61905;SDS011;47863;55.766;37.672;2023-08-01T01:46:29;7.53;;;4.50;;
61905;SDS011;47863;55.766;37.672;2023-08-01T01:48:55;6.25;;;4.47;;
61905;SDS011;47863;55.766;37.672;2023-08-01T01:51:22;11.65;;;4.68;;
61905;SDS011;47863;55.766;37.672;2023-08-01T01:53:47;10.82;;;5.03;;
61905;SDS011;47863;55.766;37.672;2023-08-01T01:56:13;16.58;;;5.35;;
61905;SDS011;47863;55.766;37.672;2023-08-01T01:58:39;13.48;;;5.20;;
61905;SDS011;47863;55.766;37.672;2023-08-01T02:01:04;9.75;;;4.72;;
61905;SDS011;47863;55.766;37.672;2023-08-01T02:03:30;9.23;;;4.60;;
61905;SDS011;47863;55.766;37.672;2023-08-01T02:05:56;11.50;;;5.07;;
61905;SDS011;47863;55.766;37.672;2023-08-01T02:08:21;9.75;;;5.05;;
61905;SDS011;47863;55.766;37.672;2023-08-01T02:10:47;9.02;;;4.60;;
61905;SDS011;47863;55.766;37.672;2023-08-01T02:13:13;7.72;;;4.45;;
61905;SDS011;47863;55.766;37.672;2023-08-01T02:15:39;8.38;;;4.57;;
61905;SDS011;47863;55.766;37.672;2023-08-01T02:18:05;10.00;;;4.82;;
61905;SDS011;47863;55.766;37.672;2023-08-01T02:20:30;11.63;;;4.40;;
61905;SDS011;47863;55.766;37.672;2023-08-01T02:22:56;11.38;;;4.55;;
61905;SDS011;47863;55.766;37.672;2023-08-01T02:25:22;9.00;;;4.50;;
61905;SDS011;47863;55.766;37.672;2023-08-01T02:27:48;9.18;;;4.53;;
61905;SDS011;47863;55.766;37.672;2023-08-01T02:30:13;11.25;;;5.07;;
61905;SDS011;47863;55.766;37.672;2023-08-01T02:32:39;9.63;;;5.25;;
61905;SDS011;47863;55.766;37.672;2023-08-01T02:35:05;7.20;;;4.13;;
61905;SDS011;47863;55.766;37.672;2023-08-01T02:37:33;10.55;;;4.57;;
61905;SDS011;47863;55.766;37.672;2023-08-01T02:40:01;8.63;;;4.38;;
61905;SDS011;47863;55.766;37.672;2023-08-01T02:42:32;10.15;;;4.47;;
61905;SDS011;47863;55.766;37.672;2023-08-01T02:44:58;10.85;;;4.95;;
61905;SDS011;47863;55.766;37.672;2023-08-01T02:47:24;8.02;;;5.15;;
61905;SDS011;47863;55.766;37.672;2023-08-01T02:49:49;10.32;;;5.05;;
61905;SDS011;47863;55.766;37.672;2023-08-01T02:52:15;7.32;;;4.45;;
61905;SDS011;47863;55.766;37.672;2023-08-01T02:54:40;12.63;;;5.43;;
61905;SDS011;47863;55.766;37.672;2023-08-01T02:57:06;9.38;;;4.40;;
61905;SDS011;47863;55.766;37.672;2023-08-01T02:59:32;10.45;;;5.03;;
61905;SDS011;47863;55.766;37.672;2023-08-01T03:01:58;12.18;;;5.03;;
61905;SDS011;47863;55.766;37.672;2023-08-01T03:04:24;11.23;;;5.57;;
61905;SDS011;47863;55.766;37.672;2023-08-01T03:06:50;7.88;;;4.88;;
61905;SDS011;47863;55.766;37.672;2023-08-01T03:09:15;10.10;;;5.60;;
61905;SDS011;47863;55.766;37.672;2023-08-01T03:11:41;10.20;;;5.63;;
61905;SDS011;47863;55.766;37.672;2023-08-01T03:14:07;12.43;;;5.50;;
61905;SDS011;47863;55.766;37.672;2023-08-01T03:16:32;11.88;;;5.57;;
61905;SDS011;47863;55.766;37.672;2023-08-01T03:18:58;9.98;;;5.70;;
61905;SDS011;47863;55.766;37.672;2023-08-01T03:21:33;8.27;;;4.88;;
61905;SDS011;47863;55.766;37.672;2023-08-01T03:24:03;9.25;;;5.32;;
61905;SDS011;47863;55.766;37.672;2023-08-01T03:26:29;13.23;;;5.35;;
61905;SDS011;47863;55.766;37.672;2023-08-01T03:28:55;11.98;;;5.60;;
61905;SDS011;47863;55.766;37.672;2023-08-01T03:31:22;8.30;;;6.07;;
61905;SDS011;47863;55.766;37.672;2023-08-01T03:33:48;12.88;;;6.43;;
61905;SDS011;47863;55.766;37.672;2023-08-01T03:36:13;11.10;;;5.93;;
61905;SDS011;47863;55.766;37.672;2023-08-01T03:38:39;11.65;;;6.22;;
61905;SDS011;47863;55.766;37.672;2023-08-01T03:41:05;11.80;;;6.50;;
61905;SDS011;47863;55.766;37.672;2023-08-01T03:43:31;10.05;;;6.20;;
61905;SDS011;47863;55.766;37.672;2023-08-01T03:45:57;9.50;;;5.60;;
61905;SDS011;47863;55.766;37.672;2023-08-01T03:48:22;11.25;;;6.40;;
61905;SDS011;47863;55.766;37.672;2023-08-01T03:50:48;9.80;;;5.97;;
61905;SDS011;47863;55.766;37.672;2023-08-01T03:53:14;12.98;;;6.05;;
61905;SDS011;47863;55.766;37.672;2023-08-01T03:55:39;12.65;;;7.03;;
61905;SDS011;47863;55.766;37.672;2023-08-01T03:58:05;12.80;;;6.32;;
61905;SDS011;47863;55.766;37.672;2023-08-01T04:00:31;11.45;;;6.68;;
61905;SDS011;47863;55.766;37.672;2023-08-01T04:03:00;14.38;;;7.07;;
61905;SDS011;47863;55.766;37.672;2023-08-01T04:05:27;13.65;;;6.97;;
61905;SDS011;47863;55.766;37.672;2023-08-01T04:07:53;13.10;;;6.70;;
61905;SDS011;47863;55.766;37.672;2023-08-01T04:10:21;10.23;;;6.30;;
61905;SDS011;47863;55.766;37.672;2023-08-01T04:12:47;12.68;;;7.20;;
61905;SDS011;47863;55.766;37.672;2023-08-01T04:15:12;9.65;;;5.85;;
61905;SDS011;47863;55.766;37.672;2023-08-01T04:17:38;10.95;;;6.18;;
61905;SDS011;47863;55.766;37.672;2023-08-01T04:20:04;11.30;;;6.00;;
61905;SDS011;47863;55.766;37.672;2023-08-01T04:22:30;11.10;;;6.95;;
61905;SDS011;47863;55.766;37.672;2023-08-01T04:24:56;10.18;;;6.15;;
61905;SDS011;47863;55.766;37.672;2023-08-01T04:27:21;9.93;;;6.80;;
61905;SDS011;47863;55.766;37.672;2023-08-01T04:29:47;10.90;;;6.25;;
61905;SDS011;47863;55.766;37.672;2023-08-01T04:32:13;13.30;;;6.93;;
61905;SDS011;47863;55.766;37.672;2023-08-01T04:34:40;12.25;;;7.53;;
61905;SDS011;47863;55.766;37.672;2023-08-01T04:37:06;9.88;;;6.57;;
61905;SDS011;47863;55.766;37.672;2023-08-01T04:39:33;9.88;;;6.18;;
61905;SDS011;47863;55.766;37.672;2023-08-01T04:41:59;14.40;;;6.88;;
61905;SDS011;47863;55.766;37.672;2023-08-01T04:44:24;12.20;;;7.97;;
61905;SDS011;47863;55.766;37.672;2023-08-01T04:46:50;12.68;;;6.57;;
61905;SDS011;47863;55.766;37.672;2023-08-01T04:49:15;15.50;;;6.53;;
61905;SDS011;47863;55.766;37.672;2023-08-01T04:51:41;10.98;;;5.95;;
61905;SDS011;47863;55.766;37.672;2023-08-01T04:54:06;10.73;;;6.30;;
61905;SDS011;47863;55.766;37.672;2023-08-01T04:56:32;10.35;;;6.43;;
61905;SDS011;47863;55.766;37.672;2023-08-01T04:58:58;12.15;;;6.22;;
61905;SDS011;47863;55.766;37.672;2023-08-01T05:01:23;9.90;;;5.65;;
61905;SDS011;47863;55.766;37.672;2023-08-01T05:03:49;9.98;;;5.90;;
61905;SDS011;47863;55.766;37.672;2023-08-01T05:06:14;9.48;;;5.57;;
61905;SDS011;47863;55.766;37.672;2023-08-01T05:08:40;8.73;;;5.65;;
61905;SDS011;47863;55.766;37.672;2023-08-01T05:11:05;8.77;;;5.13;;
61905;SDS011;47863;55.766;37.672;2023-08-01T05:13:31;7.35;;;4.43;;
61905;SDS011;47863;55.766;37.672;2023-08-01T05:15:56;8.30;;;4.63;;
61905;SDS011;47863;55.766;37.672;2023-08-01T05:18:22;8.13;;;4.97;;
61905;SDS011;47863;55.766;37.672;2023-08-01T05:20:47;6.90;;;5.20;;
61905;SDS011;47863;55.766;37.672;2023-08-01T05:23:13;10.35;;;5.07;;
61905;SDS011;47863;55.766;37.672;2023-08-01T05:25:39;7.88;;;4.32;;
61905;SDS011;47863;55.766;37.672;2023-08-01T05:28:04;8.35;;;4.68;;
61905;SDS011;47863;55.766;37.672;2023-08-01T05:30:30;8.65;;;4.07;;
61905;SDS011;47863;55.766;37.672;2023-08-01T05:32:55;10.30;;;4.97;;
61905;SDS011;47863;55.766;37.672;2023-08-01T05:35:21;7.85;;;4.30;;
61905;SDS011;47863;55.766;37.672;2023-08-01T05:37:47;7.72;;;4.43;;
61905;SDS011;47863;55.766;37.672;2023-08-01T05:40:12;7.40;;;4.65;;
61905;SDS011;47863;55.766;37.672;2023-08-01T05:42:38;7.60;;;3.90;;
61905;SDS011;47863;55.766;37.672;2023-08-01T05:45:04;5.65;;;3.67;;
61905;SDS011;47863;55.766;37.672;2023-08-01T05:47:31;5.63;;;3.70;;
61905;SDS011;47863;55.766;37.672;2023-08-01T05:49:57;5.57;;;3.90;;
61905;SDS011;47863;55.766;37.672;2023-08-01T05:52:23;7.03;;;4.03;;
61905;SDS011;47863;55.766;37.672;2023-08-01T05:54:49;4.85;;;3.30;;
61905;SDS011;47863;55.766;37.672;2023-08-01T05:57:15;7.93;;;4.47;;
61905;SDS011;47863;55.766;37.672;2023-08-01T05:59:40;7.15;;;4.18;;
61905;SDS011;47863;55.766;37.672;2023-08-01T06:02:06;6.13;;;3.15;;
61905;SDS011;47863;55.766;37.672;2023-08-01T06:04:32;5.40;;;3.78;;
61905;SDS011;47863;55.766;37.672;2023-08-01T06:06:57;7.28;;;3.83;;
61905;SDS011;47863;55.766;37.672;2023-08-01T06:09:24;7.80;;;3.75;;
61905;SDS011;47863;55.766;37.672;2023-08-01T06:11:50;6.97;;;3.67;;
61905;SDS011;47863;55.766;37.672;2023-08-01T06:14:16;4.72;;;3.03;;
61905;SDS011;47863;55.766;37.672;2023-08-01T06:16:42;6.45;;;3.38;;
61905;SDS011;47863;55.766;37.672;2023-08-01T06:19:08;5.78;;;3.40;;
61905;SDS011;47863;55.766;37.672;2023-08-01T06:21:33;5.47;;;3.15;;
61905;SDS011;47863;55.766;37.672;2023-08-01T06:23:59;5.93;;;3.45;;
61905;SDS011;47863;55.766;37.672;2023-08-01T06:26:25;5.65;;;3.33;;
61905;SDS011;47863;55.766;37.672;2023-08-01T06:28:50;4.53;;;3.30;;
61905;SDS011;47863;55.766;37.672;2023-08-01T06:31:19;6.85;;;3.20;;
61905;SDS011;47863;55.766;37.672;2023-08-01T06:33:45;7.72;;;3.10;;
61905;SDS011;47863;55.766;37.672;2023-08-01T06:36:11;4.43;;;2.95;;
61905;SDS011;47863;55.766;37.672;2023-08-01T06:38:38;4.80;;;2.95;;
61905;SDS011;47863;55.766;37.672;2023-08-01T06:41:03;3.42;;;2.22;;
61905;SDS011;47863;55.766;37.672;2023-08-01T06:43:29;4.38;;;2.70;;
61905;SDS011;47863;55.766;37.672;2023-08-01T06:45:55;5.15;;;2.75;;
61905;SDS011;47863;55.766;37.672;2023-08-01T06:48:20;3.72;;;2.80;;
61905;SDS011;47863;55.766;37.672;2023-08-01T06:50:46;4.72;;;2.70;;
61905;SDS011;47863;55.766;37.672;2023-08-01T06:53:11;3.70;;;2.25;;
61905;SDS011;47863;55.766;37.672;2023-08-01T06:55:37;3.70;;;2.40;;
61905;SDS011;47863;55.766;37.672;2023-08-01T06:58:02;3.08;;;2.08;;
61905;SDS011;47863;55.766;37.672;2023-08-01T07:00:28;3.47;;;2.30;;
61905;SDS011;47863;55.766;37.672;2023-08-01T07:02:54;4.97;;;3.28;;
61905;SDS011;47863;55.766;37.672;2023-08-01T07:05:19;8.02;;;3.10;;
61905;SDS011;47863;55.766;37.672;2023-08-01T07:07:45;3.22;;;2.00;;
61905;SDS011;47863;55.766;37.672;2023-08-01T07:10:11;2.83;;;2.10;;
61905;SDS011;47863;55.766;37.672;2023-08-01T07:12:37;4.78;;;2.67;;
61905;SDS011;47863;55.766;37.672;2023-08-01T07:15:02;4.68;;;2.63;;
61905;SDS011;47863;55.766;37.672;2023-08-01T07:17:31;3.80;;;2.38;;
61905;SDS011;47863;55.766;37.672;2023-08-01T07:19:56;4.57;;;2.70;;
61905;SDS011;47863;55.766;37.672;2023-08-01T07:22:22;4.80;;;2.40;;
61905;SDS011;47863;55.766;37.672;2023-08-01T07:24:52;4.60;;;2.58;;
61905;SDS011;47863;55.766;37.672;2023-08-01T07:27:18;4.55;;;2.78;;
61905;SDS011;47863;55.766;37.672;2023-08-01T07:29:43;5.45;;;2.92;;
61905;SDS011;47863;55.766;37.672;2023-08-01T07:32:09;4.53;;;2.80;;
61905;SDS011;47863;55.766;37.672;2023-08-01T07:34:35;5.78;;;2.90;;
61905;SDS011;47863;55.766;37.672;2023-08-01T07:37:00;5.15;;;2.60;;
61905;SDS011;47863;55.766;37.672;2023-08-01T07:39:26;3.95;;;2.50;;
61905;SDS011;47863;55.766;37.672;2023-08-01T07:41:51;4.35;;;2.70;;
61905;SDS011;47863;55.766;37.672;2023-08-01T07:44:17;4.82;;;2.50;;
61905;SDS011;47863;55.766;37.672;2023-08-01T07:46:43;4.50;;;2.70;;
61905;SDS011;47863;55.766;37.672;2023-08-01T07:49:08;5.53;;;2.80;;
61905;SDS011;47863;55.766;37.672;2023-08-01T07:51:34;13.32;;;10.02;;
61905;SDS011;47863;55.766;37.672;2023-08-01T07:54:00;5.72;;;4.15;;
61905;SDS011;47863;55.766;37.672;2023-08-01T07:56:25;6.53;;;3.88;;
61905;SDS011;47863;55.766;37.672;2023-08-01T07:58:51;5.35;;;3.90;;
61905;SDS011;47863;55.766;37.672;2023-08-01T08:01:16;6.20;;;4.00;;
61905;SDS011;47863;55.766;37.672;2023-08-01T08:03:42;8.32;;;3.70;;
61905;SDS011;47863;55.766;37.672;2023-08-01T08:06:08;5.32;;;3.40;;
61905;SDS011;47863;55.766;37.672;2023-08-01T08:08:33;5.13;;;3.20;;
61905;SDS011;47863;55.766;37.672;2023-08-01T08:10:59;9.25;;;6.35;;
61905;SDS011;47863;55.766;37.672;2023-08-01T08:13:26;8.32;;;4.60;;
61905;SDS011;47863;55.766;37.672;2023-08-01T08:15:52;9.52;;;4.03;;
61905;SDS011;47863;55.766;37.672;2023-08-01T08:18:21;6.47;;;3.47;;
61905;SDS011;47863;55.766;37.672;2023-08-01T08:20:46;4.53;;;2.90;;
61905;SDS011;47863;55.766;37.672;2023-08-01T08:23:12;5.85;;;3.03;;
61905;SDS011;47863;55.766;37.672;2023-08-01T08:25:39;5.20;;;2.70;;
61905;SDS011;47863;55.766;37.672;2023-08-01T08:28:06;7.70;;;3.33;;
61905;SDS011;47863;55.766;37.672;2023-08-01T08:30:32;4.55;;;3.40;;
61905;SDS011;47863;55.766;37.672;2023-08-01T08:32:58;5.00;;;3.15;;
61905;SDS011;47863;55.766;37.672;2023-08-01T08:35:25;5.45;;;3.10;;
61905;SDS011;47863;55.766;37.672;2023-08-01T08:37:51;6.57;;;3.85;;
61905;SDS011;47863;55.766;37.672;2023-08-01T08:40:16;6.05;;;3.22;;
61905;SDS011;47863;55.766;37.672;2023-08-01T08:42:42;5.63;;;2.72;;
61905;SDS011;47863;55.766;37.672;2023-08-01T08:45:10;4.40;;;2.22;;
61905;SDS011;47863;55.766;37.672;2023-08-01T08:47:40;5.53;;;2.90;;
61905;SDS011;47863;55.766;37.672;2023-08-01T08:50:08;3.38;;;2.40;;
61905;SDS011;47863;55.766;37.672;2023-08-01T08:52:35;4.55;;;2.35;;
61905;SDS011;47863;55.766;37.672;2023-08-01T08:55:01;4.03;;;2.80;;
61905;SDS011;47863;55.766;37.672;2023-08-01T08:57:29;4.57;;;2.70;;
61905;SDS011;47863;55.766;37.672;2023-08-01T08:59:56;4.30;;;2.63;;
61905;SDS011;47863;55.766;37.672;2023-08-01T09:02:22;4.25;;;2.80;;
61905;SDS011;47863;55.766;37.672;2023-08-01T09:04:48;4.00;;;2.90;;
61905;SDS011;47863;55.766;37.672;2023-08-01T09:07:14;4.55;;;2.58;;
61905;SDS011;47863;55.766;37.672;2023-08-01T09:09:42;4.72;;;3.10;;
61905;SDS011;47863;55.766;37.672;2023-08-01T09:12:08;4.93;;;2.92;;
61905;SDS011;47863;55.766;37.672;2023-08-01T09:14:34;3.80;;;2.50;;
61905;SDS011;47863;55.766;37.672;2023-08-01T09:17:07;3.75;;;2.92;;
61905;SDS011;47863;55.766;37.672;2023-08-01T09:19:33;5.18;;;2.60;;
61905;SDS011;47863;55.766;37.672;2023-08-01T09:21:59;3.63;;;2.30;;
61905;SDS011;47863;55.766;37.672;2023-08-01T09:24:25;5.93;;;2.92;;
61905;SDS011;47863;55.766;37.672;2023-08-01T09:26:50;4.90;;;2.85;;
61905;SDS011;47863;55.766;37.672;2023-08-01T09:29:17;6.57;;;2.65;;
61905;SDS011;47863;55.766;37.672;2023-08-01T09:31:43;5.65;;;3.00;;
61905;SDS011;47863;55.766;37.672;2023-08-01T09:34:22;5.75;;;2.90;;
61905;SDS011;47863;55.766;37.672;2023-08-01T09:36:49;5.15;;;2.67;;
61905;SDS011;47863;55.766;37.672;2023-08-01T09:39:19;4.25;;;2.55;;
61905;SDS011;47863;55.766;37.672;2023-08-01T09:41:54;4.45;;;3.10;;
61905;SDS011;47863;55.766;37.672;2023-08-01T09:44:21;4.25;;;2.40;;
61905;SDS011;47863;55.766;37.672;2023-08-01T09:46:59;4.22;;;2.53;;
61905;SDS011;47863;55.766;37.672;2023-08-01T09:49:26;8.95;;;3.47;;
61905;SDS011;47863;55.766;37.672;2023-08-01T09:51:53;3.78;;;2.70;;
61905;SDS011;47863;55.766;37.672;2023-08-01T09:54:20;3.35;;;2.45;;
61905;SDS011;47863;55.766;37.672;2023-08-01T09:56:47;5.45;;;2.20;;
61905;SDS011;47863;55.766;37.672;2023-08-01T10:01:49;5.03;;;2.45;;
61905;SDS011;47863;55.766;37.672;2023-08-01T10:04:19;3.75;;;2.50;;
61905;SDS011;47863;55.766;37.672;2023-08-01T10:06:49;4.95;;;2.80;;
61905;SDS011;47863;55.766;37.672;2023-08-01T10:09:21;4.78;;;2.65;;
61905;SDS011;47863;55.766;37.672;2023-08-01T10:11:47;3.95;;;2.63;;
61905;SDS011;47863;55.766;37.672;2023-08-01T10:14:14;3.67;;;2.63;;
61905;SDS011;47863;55.766;37.672;2023-08-01T10:16:41;4.90;;;2.92;;
61905;SDS011;47863;55.766;37.672;2023-08-01T10:19:07;5.53;;;2.70;;
61905;SDS011;47863;55.766;37.672;2023-08-01T10:21:34;5.18;;;2.70;;
61905;SDS011;47863;55.766;37.672;2023-08-01T10:24:01;5.22;;;2.63;;
61905;SDS011;47863;55.766;37.672;2023-08-01T10:26:29;4.05;;;2.70;;
61905;SDS011;47863;55.766;37.672;2023-08-01T10:28:55;3.97;;;2.80;;
61905;SDS011;47863;55.766;37.672;2023-08-01T10:31:24;4.28;;;3.00;;
61905;SDS011;47863;55.766;37.672;2023-08-01T10:33:50;4.35;;;2.80;;
61905;SDS011;47863;55.766;37.672;2023-08-01T10:36:22;4.07;;;2.70;;
61905;SDS011;47863;55.766;37.672;2023-08-01T10:38:50;3.97;;;2.70;;
61905;SDS011;47863;55.766;37.672;2023-08-01T10:41:18;3.80;;;2.67;;
61905;SDS011;47863;55.766;37.672;2023-08-01T10:44:13;3.78;;;2.28;;
61905;SDS011;47863;55.766;37.672;2023-08-01T10:49:18;3.63;;;2.47;;
61905;SDS011;47863;55.766;37.672;2023-08-01T10:51:45;5.85;;;2.97;;
61905;SDS011;47863;55.766;37.672;2023-08-01T10:54:21;3.47;;;2.40;;
61905;SDS011;47863;55.766;37.672;2023-08-01T10:56:48;4.75;;;2.78;;
61905;SDS011;47863;55.766;37.672;2023-08-01T10:59:15;4.32;;;2.92;;
61905;SDS011;47863;55.766;37.672;2023-08-01T11:01:48;3.55;;;2.50;;
61905;SDS011;47863;55.766;37.672;2023-08-01T11:04:15;4.10;;;2.60;;
61905;SDS011;47863;55.766;37.672;2023-08-01T11:06:45;6.63;;;2.78;;
61905;SDS011;47863;55.766;37.672;2023-08-01T11:09:22;4.10;;;2.63;;
61905;SDS011;47863;55.766;37.672;2023-08-01T11:11:50;5.40;;;2.55;;
61905;SDS011;47863;55.766;37.672;2023-08-01T11:14:23;3.38;;;2.72;;
61905;SDS011;47863;55.766;37.672;2023-08-01T11:16:50;4.40;;;3.00;;
61905;SDS011;47863;55.766;37.672;2023-08-01T11:19:19;4.20;;;2.83;;
61905;SDS011;47863;55.766;37.672;2023-08-01T11:21:46;3.92;;;2.70;;
61905;SDS011;47863;55.766;37.672;2023-08-01T11:24:12;4.47;;;2.45;;
61905;SDS011;47863;55.766;37.672;2023-08-01T11:26:44;3.88;;;2.80;;
61905;SDS011;47863;55.766;37.672;2023-08-01T11:29:12;3.70;;;2.50;;
61905;SDS011;47863;55.766;37.672;2023-08-01T11:31:38;3.55;;;2.63;;
61905;SDS011;47863;55.766;37.672;2023-08-01T11:34:04;4.00;;;2.60;;
61905;SDS011;47863;55.766;37.672;2023-08-01T11:36:30;5.57;;;2.40;;
61905;SDS011;47863;55.766;37.672;2023-08-01T11:38:59;4.38;;;2.05;;
61905;SDS011;47863;55.766;37.672;2023-08-01T11:41:26;3.05;;;2.38;;
61905;SDS011;47863;55.766;37.672;2023-08-01T11:43:52;5.78;;;2.75;;
61905;SDS011;47863;55.766;37.672;2023-08-01T11:46:20;4.38;;;2.70;;
61905;SDS011;47863;55.766;37.672;2023-08-01T11:48:47;4.05;;;2.50;;
61905;SDS011;47863;55.766;37.672;2023-08-01T11:51:13;3.30;;;2.38;;
61905;SDS011;47863;55.766;37.672;2023-08-01T11:53:39;4.13;;;2.60;;
61905;SDS011;47863;55.766;37.672;2023-08-01T11:56:05;5.10;;;4.00;;
61905;SDS011;47863;55.766;37.672;2023-08-01T11:58:31;4.68;;;2.70;;
61905;SDS011;47863;55.766;37.672;2023-08-01T12:01:04;4.82;;;2.75;;
61905;SDS011;47863;55.766;37.672;2023-08-01T12:03:44;4.20;;;2.58;;
61905;SDS011;47863;55.766;37.672;2023-08-01T12:06:21;4.63;;;2.80;;
61905;SDS011;47863;55.766;37.672;2023-08-01T12:08:52;4.80;;;2.60;;
61905;SDS011;47863;55.766;37.672;2023-08-01T12:13:48;4.13;;;2.58;;
61905;SDS011;47863;55.766;37.672;2023-08-01T12:16:28;4.15;;;2.67;;
61905;SDS011;47863;55.766;37.672;2023-08-01T12:18:54;5.05;;;2.55;;
61905;SDS011;47863;55.766;37.672;2023-08-01T12:21:20;3.75;;;2.60;;
61905;SDS011;47863;55.766;37.672;2023-08-01T12:23:46;3.30;;;2.50;;
61905;SDS011;47863;55.766;37.672;2023-08-01T12:26:12;4.03;;;2.70;;
61905;SDS011;47863;55.766;37.672;2023-08-01T12:28:37;4.18;;;2.53;;
61905;SDS011;47863;55.766;37.672;2023-08-01T12:31:03;3.95;;;2.75;;
61905;SDS011;47863;55.766;37.672;2023-08-01T12:33:29;3.30;;;2.40;;
61905;SDS011;47863;55.766;37.672;2023-08-01T12:35:55;4.38;;;2.80;;
61905;SDS011;47863;55.766;37.672;2023-08-01T12:38:20;7.25;;;2.65;;
61905;SDS011;47863;55.766;37.672;2023-08-01T12:40:46;4.78;;;2.78;;
61905;SDS011;47863;55.766;37.672;2023-08-01T12:43:12;5.15;;;2.97;;
61905;SDS011;47863;55.766;37.672;2023-08-01T12:45:38;4.75;;;2.78;;
61905;SDS011;47863;55.766;37.672;2023-08-01T12:48:03;5.03;;;2.50;;
61905;SDS011;47863;55.766;37.672;2023-08-01T12:50:29;4.00;;;2.50;;
61905;SDS011;47863;55.766;37.672;2023-08-01T12:52:55;3.63;;;2.38;;
61905;SDS011;47863;55.766;37.672;2023-08-01T12:55:20;5.40;;;2.67;;
61905;SDS011;47863;55.766;37.672;2023-08-01T12:57:48;4.68;;;2.78;;
61905;SDS011;47863;55.766;37.672;2023-08-01T13:00:14;5.57;;;2.80;;
61905;SDS011;47863;55.766;37.672;2023-08-01T13:02:40;4.30;;;3.08;;
61905;SDS011;47863;55.766;37.672;2023-08-01T13:05:05;6.60;;;3.20;;
61905;SDS011;47863;55.766;37.672;2023-08-01T13:07:31;6.40;;;3.15;;
61905;SDS011;47863;55.766;37.672;2023-08-01T13:09:58;6.05;;;3.30;;
61905;SDS011;47863;55.766;37.672;2023-08-01T13:12:24;3.70;;;2.53;;
61905;SDS011;47863;55.766;37.672;2023-08-01T13:14:50;3.85;;;2.95;;
61905;SDS011;47863;55.766;37.672;2023-08-01T13:17:16;3.90;;;2.67;;
61905;SDS011;47863;55.766;37.672;2023-08-01T13:19:41;5.28;;;2.80;;
61905;SDS011;47863;55.766;37.672;2023-08-01T13:22:07;4.50;;;3.00;;
61905;SDS011;47863;55.766;37.672;2023-08-01T13:24:32;4.00;;;2.83;;
61905;SDS011;47863;55.766;37.672;2023-08-01T13:26:58;4.82;;;3.03;;
61905;SDS011;47863;55.766;37.672;2023-08-01T13:29:24;4.63;;;2.90;;
61905;SDS011;47863;55.766;37.672;2023-08-01T13:31:49;6.45;;;2.90;;
61905;SDS011;47863;55.766;37.672;2023-08-01T13:34:15;3.38;;;2.55;;
61905;SDS011;47863;55.766;37.672;2023-08-01T13:36:42;5.93;;;2.97;;
61905;SDS011;47863;55.766;37.672;2023-08-01T13:39:08;4.07;;;2.47;;
61905;SDS011;47863;55.766;37.672;2023-08-01T13:41:34;3.97;;;2.90;;
61905;SDS011;47863;55.766;37.672;2023-08-01T13:44:00;4.82;;;2.90;;
61905;SDS011;47863;55.766;37.672;2023-08-01T13:46:27;3.92;;;2.80;;
61905;SDS011;47863;55.766;37.672;2023-08-01T13:48:52;4.45;;;2.85;;
61905;SDS011;47863;55.766;37.672;2023-08-01T13:51:18;4.07;;;2.83;;
61905;SDS011;47863;55.766;37.672;2023-08-01T13:53:44;4.07;;;2.80;;
61905;SDS011;47863;55.766;37.672;2023-08-01T13:56:09;5.60;;;2.92;;
61905;SDS011;47863;55.766;37.672;2023-08-01T13:58:37;4.43;;;2.97;;
61905;SDS011;47863;55.766;37.672;2023-08-01T14:01:04;4.80;;;2.78;;
61905;SDS011;47863;55.766;37.672;2023-08-01T14:03:33;5.60;;;3.00;;
61905;SDS011;47863;55.766;37.672;2023-08-01T14:08:31;5.50;;;3.08;;
61905;SDS011;47863;55.766;37.672;2023-08-01T14:10:56;4.07;;;2.67;;
61905;SDS011;47863;55.766;37.672;2023-08-01T14:13:22;5.10;;;2.80;;
61905;SDS011;47863;55.766;37.672;2023-08-01T14:15:48;5.97;;;2.80;;
61905;SDS011;47863;55.766;37.672;2023-08-01T14:18:13;3.95;;;2.72;;
61905;SDS011;47863;55.766;37.672;2023-08-01T14:20:39;3.72;;;2.75;;
61905;SDS011;47863;55.766;37.672;2023-08-01T14:23:04;4.90;;;3.47;;
61905;SDS011;47863;55.766;37.672;2023-08-01T14:25:30;5.55;;;2.90;;
61905;SDS011;47863;55.766;37.672;2023-08-01T14:27:55;4.00;;;2.70;;
61905;SDS011;47863;55.766;37.672;2023-08-01T14:30:21;3.80;;;2.72;;
61905;SDS011;47863;55.766;37.672;2023-08-01T14:32:47;5.13;;;2.70;;
61905;SDS011;47863;55.766;37.672;2023-08-01T14:35:12;6.45;;;3.30;;
61905;SDS011;47863;55.766;37.672;2023-08-01T14:37:38;5.68;;;2.67;;